createdAt,value
2019-02-17T00:00:59.247Z,30.95
2019-02-17T00:04:03.053Z,33.95
2019-02-17T00:07:05.833Z,30.27
2019-02-17T00:10:09.129Z,32.90
2019-02-17T00:13:08.029Z,31.57
2019-02-17T00:16:10.602Z,28.75
2019-02-17T00:19:13.393Z,34.67
2019-02-17T00:22:15.657Z,35.83
2019-02-17T00:25:20.419Z,36.13
2019-02-17T00:28:21.482Z,35.70
2019-02-17T00:31:24.270Z,33.67
2019-02-17T00:34:27.048Z,30.02
2019-02-17T00:37:29.834Z,29.92
2019-02-17T00:40:28.782Z,29.63
2019-02-17T00:43:31.561Z,22.22
2019-02-17T00:46:34.093Z,28.55
2019-02-17T00:49:36.873Z,21.15
2019-02-17T00:52:40.170Z,29.20
2019-02-17T00:55:43.467Z,32.98
2019-02-17T00:58:46.266Z,23.85
2019-02-17T01:01:50.056Z,22.22
2019-02-17T01:04:52.590Z,23.05
2019-02-17T01:07:55.376Z,24.55
2019-02-17T01:10:57.898Z,34.40
2019-02-17T01:14:00.939Z,26.82
2019-02-17T01:17:03.721Z,29.35
2019-02-17T01:20:06.504Z,21.37
2019-02-17T01:23:09.036Z,24.77
2019-02-17T01:26:19.498Z,23.52
2019-02-17T01:29:22.542Z,30.57
2019-02-17T01:32:25.355Z,22.13
2019-02-17T01:35:28.362Z,24.30
2019-02-17T01:38:30.891Z,27.77
2019-02-17T01:41:33.421Z,26.62
2019-02-17T01:44:37.227Z,22.90
2019-02-17T01:47:41.803Z,28.05
2019-02-17T01:50:44.841Z,27.25
2019-02-17T01:53:49.161Z,33.23
2019-02-17T01:56:52.971Z,30.23
2019-02-17T01:59:55.499Z,30.40
2019-02-17T02:02:58.030Z,32.88
2019-02-17T02:06:01.072Z,31.48
2019-02-17T02:09:04.108Z,29.15
2019-02-17T02:12:07.661Z,33.10
2019-02-17T02:15:11.467Z,32.65
2019-02-17T02:18:14.507Z,31.70
2019-02-17T02:21:17.291Z,30.52
2019-02-17T02:24:19.826Z,30.05
2019-02-17T02:27:22.602Z,30.55
2019-02-17T02:30:25.900Z,37.17
2019-02-17T02:33:24.910Z,29.07
2019-02-17T02:36:27.627Z,31.87
2019-02-17T02:39:30.670Z,36.00
2019-02-17T02:42:33.706Z,33.67
2019-02-17T02:45:36.749Z,37.38
2019-02-17T02:48:41.577Z,29.87
2019-02-17T02:51:43.850Z,26.93
2019-02-17T02:54:50.475Z,35.15
2019-02-17T02:57:53.001Z,29.37
2019-02-17T03:00:55.784Z,26.97
2019-02-17T03:03:59.851Z,24.72
2019-02-17T03:07:02.120Z,34.60
2019-02-17T03:10:04.910Z,49.75
2019-02-17T03:13:07.946Z,51.98
2019-02-17T03:16:10.734Z,26.52
2019-02-17T03:19:24.521Z,35.25
2019-02-17T03:22:27.825Z,32.58
2019-02-17T03:25:30.607Z,30.35
2019-02-17T03:28:33.390Z,32.25
2019-02-17T03:31:36.186Z,30.32
2019-02-17T03:34:35.116Z,33.18
2019-02-17T03:37:37.645Z,34.48
2019-02-17T03:40:34.537Z,32.70
2019-02-17T03:46:52.904Z,33.75
2019-02-17T03:49:55.689Z,36.80
2019-02-17T03:53:00.028Z,31.33
2019-02-17T03:56:10.987Z,27.07
2019-02-17T03:59:16.769Z,30.65
2019-02-17T04:02:17.066Z,30.12
2019-02-17T04:05:19.598Z,22.58
2019-02-17T04:08:22.379Z,24.02
2019-02-17T04:11:24.905Z,21.17
2019-02-17T04:14:27.176Z,33.02
2019-02-17T04:17:29.965Z,22.13
2019-02-17T04:20:33.005Z,21.68
2019-02-17T04:23:35.535Z,23.00
2019-02-17T04:26:38.317Z,26.55
2019-02-17T04:29:41.354Z,27.27
2019-02-17T04:32:44.140Z,24.32
2019-02-17T04:35:46.674Z,26.27
2019-02-17T04:38:49.450Z,22.48
2019-02-17T04:41:51.978Z,28.47
2019-02-17T04:44:54.508Z,21.23
2019-02-17T04:47:57.287Z,28.12
2019-02-17T04:51:00.328Z,19.70
2019-02-17T04:54:02.867Z,31.27
2019-02-17T04:57:05.386Z,23.15
2019-02-17T05:00:08.169Z,27.00
2019-02-17T05:03:10.698Z,28.70
2019-02-17T05:06:13.482Z,29.18
2019-02-17T05:09:16.268Z,31.55
2019-02-17T05:12:19.305Z,29.18
2019-02-17T05:15:22.344Z,15.40
2019-02-17T05:18:24.875Z,20.23
2019-02-17T05:21:28.683Z,29.60
2019-02-17T05:24:22.066Z,21.52
2019-02-17T05:27:26.057Z,18.90
2019-02-17T05:30:28.621Z,26.12
2019-02-17T05:33:31.375Z,27.87
2019-02-17T05:36:34.924Z,26.20
2019-02-17T05:39:37.708Z,22.25
2019-02-17T05:42:40.499Z,22.87
2019-02-17T05:45:43.531Z,19.92
2019-02-17T05:48:46.057Z,25.37
2019-02-17T05:51:48.584Z,17.32
2019-02-17T05:54:54.202Z,20.35
2019-02-17T05:57:56.969Z,28.20
2019-02-17T06:01:03.753Z,20.82
2019-02-17T06:04:06.889Z,25.62
2019-02-17T06:07:09.935Z,14.53
2019-02-17T06:10:12.713Z,19.48
2019-02-17T06:13:15.501Z,18.75
2019-02-17T06:16:14.502Z,14.55
2019-02-17T06:19:17.884Z,19.85
2019-02-17T06:22:19.755Z,29.48
2019-02-17T06:25:22.282Z,18.30
2019-02-17T06:28:25.325Z,16.97
2019-02-17T06:31:27.849Z,22.45
2019-02-17T06:34:26.893Z,18.50
2019-02-17T06:37:29.321Z,12.88
2019-02-17T06:40:31.849Z,21.68
2019-02-17T06:43:30.887Z,16.23
2019-02-17T06:46:33.322Z,13.00
2019-02-17T06:49:36.114Z,20.05
2019-02-17T06:52:38.893Z,14.90
2019-02-17T06:55:41.674Z,19.52
2019-02-17T06:58:44.715Z,17.67
2019-02-17T07:01:47.241Z,13.32
2019-02-17T07:08:05.868Z,19.45
2019-02-17T07:11:08.906Z,13.38
2019-02-17T07:14:11.689Z,13.65
2019-02-17T07:17:10.635Z,16.85
2019-02-17T07:20:13.420Z,16.75
2019-02-17T07:23:15.956Z,12.28
2019-02-17T07:26:23.080Z,11.75
2019-02-17T07:29:25.871Z,12.33
2019-02-17T07:32:29.930Z,16.02
2019-02-17T07:35:32.968Z,11.25
2019-02-17T07:38:35.244Z,20.08
2019-02-17T07:41:37.776Z,11.50
2019-02-17T07:44:40.567Z,18.35
2019-02-17T07:47:43.169Z,17.05
2019-02-17T07:50:45.611Z,13.35
2019-02-17T07:53:48.141Z,21.33
2019-02-17T07:56:50.922Z,13.93
2019-02-17T07:59:53.715Z,14.55
2019-02-17T08:02:56.493Z,15.55
2019-02-17T08:05:59.788Z,17.70
2019-02-17T08:09:02.329Z,18.10
2019-02-17T08:12:05.357Z,18.65
2019-02-17T08:15:08.139Z,12.05
2019-02-17T08:18:10.921Z,10.55
2019-02-17T08:21:13.709Z,13.45
2019-02-17T08:24:16.241Z,15.80
2019-02-17T08:27:18.760Z,15.35
2019-02-17T08:30:21.288Z,15.90
2019-02-17T08:33:20.183Z,18.12
2019-02-17T08:36:23.025Z,12.95
2019-02-17T08:39:26.319Z,8.30
2019-02-17T08:42:29.117Z,10.65
2019-02-17T08:45:31.625Z,15.48
2019-02-17T08:48:34.412Z,16.15
2019-02-17T08:51:37.449Z,10.53
2019-02-17T08:54:39.975Z,11.93
2019-02-17T08:57:42.758Z,9.25
2019-02-17T09:00:45.799Z,9.43
2019-02-17T09:03:48.606Z,10.65
2019-02-17T09:06:51.121Z,7.62
2019-02-17T09:09:54.152Z,6.15
2019-02-17T09:12:55.659Z,8.75
2019-02-17T09:15:58.443Z,12.85
2019-02-17T09:19:01.482Z,6.72
2019-02-17T09:22:05.031Z,8.08
2019-02-17T09:25:08.841Z,9.05
2019-02-17T09:28:11.885Z,10.20
2019-02-17T09:31:14.669Z,9.68
2019-02-17T09:34:17.191Z,6.45
2019-02-17T09:37:19.778Z,8.68
2019-02-17T09:40:22.245Z,7.00
2019-02-17T09:43:32.968Z,11.55
2019-02-17T09:46:37.032Z,8.98
2019-02-17T09:49:47.244Z,7.55
2019-02-17T09:52:51.054Z,8.78
2019-02-17T09:55:55.164Z,8.88
2019-02-17T09:58:53.107Z,11.63
2019-02-17T10:01:55.565Z,7.83
2019-02-17T10:04:59.114Z,8.68
2019-02-17T10:08:01.897Z,6.50
2019-02-17T10:11:04.425Z,6.90
2019-02-17T10:14:08.231Z,6.83
2019-02-17T10:17:11.786Z,5.17
2019-02-17T10:20:14.832Z,6.87
2019-02-17T10:23:17.866Z,8.55
2019-02-17T10:26:20.906Z,6.28
2019-02-17T10:29:23.946Z,6.35
2019-02-17T10:32:36.299Z,6.28
2019-02-17T10:35:29.605Z,5.92
2019-02-17T10:38:32.049Z,7.95
2019-02-17T10:41:34.829Z,6.42
2019-02-17T10:44:37.624Z,5.97
2019-02-17T10:47:40.134Z,7.20
2019-02-17T10:50:43.175Z,7.05
2019-02-17T10:53:46.737Z,9.50
2019-02-17T10:56:49.258Z,4.58
2019-02-17T10:59:51.787Z,6.25
2019-02-17T11:02:54.825Z,7.83
2019-02-17T11:05:57.609Z,8.95
2019-02-17T11:09:00.140Z,7.62
2019-02-17T11:12:02.919Z,5.33
2019-02-17T11:15:05.706Z,6.92
2019-02-17T11:18:08.233Z,6.22
2019-02-17T11:21:11.277Z,6.80
2019-02-17T11:24:13.801Z,4.42
2019-02-17T11:27:16.329Z,3.72
2019-02-17T11:30:18.855Z,5.80
2019-02-17T11:33:21.384Z,6.33
2019-02-17T11:36:35.943Z,4.37
2019-02-17T11:39:41.801Z,6.80
2019-02-17T11:42:44.586Z,9.20
2019-02-17T11:45:48.161Z,5.25
2019-02-17T11:48:50.921Z,4.03
2019-02-17T11:51:53.705Z,9.70
2019-02-17T11:54:56.779Z,10.18
2019-02-17T11:57:59.527Z,5.53
2019-02-17T12:01:02.059Z,23.22
2019-02-17T12:04:05.098Z,10.08
2019-02-17T12:07:07.629Z,5.97
2019-02-17T12:10:10.407Z,6.37
2019-02-17T12:13:13.191Z,6.45
2019-02-17T12:16:15.976Z,4.92
2019-02-17T12:19:18.504Z,7.15
2019-02-17T12:22:21.550Z,5.65
2019-02-17T12:25:24.327Z,5.20
2019-02-17T12:28:30.184Z,5.15
2019-02-17T12:31:32.972Z,5.65
2019-02-17T12:34:35.494Z,4.28
2019-02-17T12:37:38.024Z,5.92
2019-02-17T12:41:51.976Z,3.83
2019-02-17T12:44:56.968Z,4.97
2019-02-17T12:47:58.542Z,5.37
2019-02-17T12:51:00.311Z,3.27
2019-02-17T12:54:03.369Z,8.00
2019-02-17T12:57:05.896Z,4.78
2019-02-17T13:00:08.427Z,6.60
2019-02-17T13:03:11.464Z,4.58
2019-02-17T13:06:14.256Z,4.83
2019-02-17T13:09:17.033Z,5.37
2019-02-17T13:12:19.564Z,6.33
2019-02-17T13:15:22.344Z,5.03
2019-02-17T13:18:25.126Z,4.65
2019-02-17T13:21:27.911Z,5.85
2019-02-17T13:24:30.955Z,6.42
2019-02-17T13:27:33.227Z,5.90
2019-02-17T13:30:35.753Z,3.02
2019-02-17T13:33:39.531Z,7.17
2019-02-17T13:36:40.811Z,7.55
2019-02-17T13:39:43.855Z,4.37
2019-02-17T13:42:46.640Z,5.08
2019-02-17T13:45:49.163Z,4.47
2019-02-17T13:48:51.686Z,4.53
2019-02-17T13:52:01.897Z,4.62
2019-02-17T13:55:04.684Z,5.83
2019-02-17T13:58:08.231Z,7.03
2019-02-17T14:01:10.759Z,5.47
2019-02-17T14:04:13.806Z,6.17
2019-02-17T14:07:16.327Z,5.53
2019-02-17T14:10:19.110Z,4.25
2019-02-17T14:13:22.925Z,7.00
2019-02-17T14:16:25.450Z,4.72
2019-02-17T14:19:27.977Z,5.67
2019-02-17T14:22:30.247Z,4.47
2019-02-17T14:25:33.286Z,4.17
2019-02-17T14:28:36.071Z,3.50
2019-02-17T14:31:38.858Z,5.33
2019-02-17T14:34:41.640Z,4.42
2019-02-17T14:37:44.424Z,9.90
2019-02-17T14:40:47.220Z,8.63
2019-02-17T14:43:49.995Z,6.85
2019-02-17T14:46:52.775Z,6.28
2019-02-17T14:49:55.305Z,5.62
2019-02-17T14:52:58.088Z,5.62
2019-02-17T14:56:01.132Z,5.30
2019-02-17T14:59:04.683Z,6.00
2019-02-17T15:02:07.466Z,6.08
2019-02-17T15:05:10.249Z,5.12
2019-02-17T15:08:13.030Z,4.58
2019-02-17T15:11:15.815Z,7.75
2019-02-17T15:14:18.607Z,6.78
2019-02-17T15:17:22.191Z,12.05
2019-02-17T15:20:24.683Z,6.33
2019-02-17T15:23:27.463Z,6.15
2019-02-17T15:26:30.247Z,9.28
2019-02-17T15:29:32.777Z,7.00
2019-02-17T15:32:35.304Z,6.10
2019-02-17T15:35:38.092Z,3.55
2019-02-17T15:38:37.201Z,6.55
2019-02-17T15:41:39.561Z,5.08
2019-02-17T15:44:42.095Z,5.95
2019-02-17T15:47:44.871Z,4.12
2019-02-17T15:50:47.399Z,5.40
2019-02-17T15:53:50.184Z,3.98
2019-02-17T15:56:55.527Z,3.42
2019-02-17T15:59:58.312Z,6.12
2019-02-17T16:03:00.839Z,6.45
2019-02-17T16:06:03.115Z,6.80
2019-02-17T16:09:05.638Z,4.72
2019-02-17T16:12:08.167Z,4.65
2019-02-17T16:15:07.329Z,3.62
2019-02-17T16:18:10.407Z,3.98
2019-02-17T16:21:13.451Z,4.62
2019-02-17T16:24:16.747Z,5.60
2019-02-17T16:27:19.530Z,4.62
2019-02-17T16:30:22.312Z,4.17
2019-02-17T16:33:26.379Z,8.23
2019-02-17T16:36:29.930Z,3.77
2019-02-17T16:42:47.532Z,4.08
2019-02-17T16:45:50.062Z,4.97
2019-02-17T16:48:52.593Z,8.35
2019-02-17T16:51:55.902Z,5.58
2019-02-17T16:54:58.923Z,3.72
2019-02-17T16:58:01.449Z,5.42
2019-02-17T17:01:04.236Z,3.72
2019-02-17T17:04:07.093Z,3.77
2019-02-17T17:07:10.831Z,5.65
2019-02-17T17:10:13.351Z,7.40
2019-02-17T17:13:16.394Z,13.85
2019-02-17T17:16:15.247Z,11.22
2019-02-17T17:19:18.377Z,12.53
2019-02-17T17:22:21.718Z,12.60
2019-02-17T17:25:24.203Z,13.95
2019-02-17T17:28:27.246Z,18.57
2019-02-17T17:31:30.284Z,13.85
2019-02-17T17:34:34.261Z,31.27
2019-02-17T17:37:35.853Z,75.83
2019-02-17T17:40:36.150Z,20.10
2019-02-17T17:43:39.880Z,14.30
2019-02-17T17:46:42.667Z,10.28
2019-02-17T17:49:45.194Z,22.52
2019-02-17T17:52:48.495Z,11.48
2019-02-17T17:55:51.271Z,11.50
2019-02-17T17:58:53.801Z,9.45
2019-02-17T18:01:56.327Z,9.58
2019-02-17T18:05:08.856Z,14.83
2019-02-17T18:08:03.945Z,11.88
2019-02-17T18:11:06.474Z,10.88
2019-02-17T18:14:09.257Z,12.25
2019-02-17T18:17:12.043Z,13.10
2019-02-17T18:20:14.827Z,13.32
2019-02-17T18:23:17.607Z,12.05
2019-02-17T18:26:20.394Z,15.53
2019-02-17T18:29:22.921Z,13.88
2019-02-17T18:32:25.961Z,9.70
2019-02-17T18:35:28.749Z,12.70
2019-02-17T18:38:33.067Z,12.07
2019-02-17T18:41:36.104Z,14.35
2019-02-17T18:44:39.144Z,8.53
2019-02-17T18:47:41.421Z,11.80
2019-02-17T18:50:44.968Z,10.08
2019-02-17T18:53:47.500Z,10.25
2019-02-17T18:56:50.024Z,12.23
2019-02-17T18:59:53.323Z,13.08
2019-02-17T19:02:56.104Z,14.00
2019-02-17T19:05:59.915Z,13.68
2019-02-17T19:09:03.721Z,13.43
2019-02-17T19:12:06.761Z,13.95
2019-02-17T19:15:09.805Z,11.22
2019-02-17T19:18:12.588Z,11.18
2019-02-17T19:21:15.111Z,18.35
2019-02-17T19:24:17.895Z,9.20
2019-02-17T19:27:20.426Z,10.10
2019-02-17T19:30:22.957Z,13.05
2019-02-17T19:33:26.536Z,12.78
2019-02-17T19:36:29.290Z,13.80
2019-02-17T19:39:31.816Z,10.72
2019-02-17T19:42:34.345Z,11.95
2019-02-17T19:45:37.385Z,15.23
2019-02-17T19:48:39.912Z,14.98
2019-02-17T19:51:43.726Z,13.25
2019-02-17T19:54:46.248Z,12.98
2019-02-17T19:57:49.290Z,12.25
2019-02-17T20:00:52.077Z,17.52
2019-02-17T20:03:54.601Z,10.43
2019-02-17T20:06:57.130Z,17.60
2019-02-17T20:09:59.913Z,10.20
2019-02-17T20:13:02.960Z,11.97
2019-02-17T20:16:05.739Z,19.80
2019-02-17T20:19:08.264Z,21.55
2019-02-17T20:22:07.659Z,11.90
2019-02-17T20:25:11.787Z,7.85
2019-02-17T20:28:14.573Z,10.40
2019-02-17T20:31:17.367Z,16.30
2019-02-17T20:34:20.144Z,17.40
2019-02-17T20:37:25.240Z,9.78
2019-02-17T20:40:25.708Z,10.88
2019-02-17T20:43:28.293Z,7.58
2019-02-17T20:46:31.528Z,16.95
2019-02-17T20:49:34.320Z,7.47
2019-02-17T20:52:37.352Z,6.87
2019-02-17T20:55:41.163Z,14.33
2019-02-17T20:58:55.463Z,10.25
2019-02-17T21:02:05.426Z,11.30
2019-02-17T21:05:08.981Z,10.20
2019-02-17T21:08:11.496Z,13.25
2019-02-17T21:11:15.308Z,11.25
2019-02-17T21:14:18.088Z,8.45
2019-02-17T21:17:20.621Z,11.60
2019-02-17T21:20:23.403Z,12.13
2019-02-17T21:23:26.447Z,10.72
2019-02-17T21:26:30.249Z,12.85
2019-02-17T21:29:32.778Z,14.60
2019-02-17T21:32:35.571Z,16.82
2019-02-17T21:35:38.882Z,9.80
2019-02-17T21:38:41.642Z,15.50
2019-02-17T21:41:47.241Z,16.87
2019-02-17T21:44:53.100Z,22.05
2019-02-17T21:47:55.623Z,13.38
2019-02-17T21:50:58.412Z,12.43
2019-02-17T21:54:00.936Z,10.95
2019-02-17T21:57:03.730Z,16.90
2019-02-17T22:00:06.252Z,15.85
2019-02-17T22:03:09.032Z,15.78
2019-02-17T22:06:11.560Z,14.30
2019-02-17T22:09:14.345Z,10.60
2019-02-17T22:12:17.639Z,11.18
2019-02-17T22:15:20.682Z,14.68
2019-02-17T22:18:34.477Z,11.18
2019-02-17T22:21:37.265Z,12.88
2019-02-17T22:24:39.785Z,12.18
2019-02-17T22:27:42.568Z,12.78
2019-02-17T22:30:45.098Z,15.65
2019-02-17T22:33:47.886Z,10.43
2019-02-17T22:36:50.665Z,14.80
2019-02-17T22:39:53.707Z,13.30
2019-02-17T22:42:57.001Z,10.65
2019-02-17T22:45:59.527Z,12.75
2019-02-17T22:49:03.603Z,6.60
2019-02-17T22:52:08.424Z,9.48
2019-02-17T22:55:11.479Z,8.88
2019-02-17T22:58:14.252Z,10.50
2019-02-17T23:01:16.775Z,9.68
2019-02-17T23:04:19.560Z,12.78
2019-02-17T23:07:21.832Z,9.35
2019-02-17T23:10:24.873Z,11.83
2019-02-17T23:13:27.665Z,8.43
2019-02-17T23:16:33.255Z,10.40
2019-02-17T23:19:36.294Z,9.35
2019-02-17T23:22:39.337Z,13.10
2019-02-17T23:25:45.968Z,10.38
2019-02-17T23:28:49.274Z,11.85
2019-02-17T23:31:51.787Z,9.03
2019-02-17T23:34:57.939Z,13.38
2019-02-17T23:37:53.845Z,8.90
2019-02-17T23:40:59.624Z,11.73
2019-02-17T23:44:02.161Z,10.45
2019-02-17T23:47:05.452Z,9.03
2019-02-17T23:50:08.491Z,12.00
2019-02-17T23:53:11.279Z,12.33
2019-02-17T23:56:14.058Z,8.13
2019-02-17T23:59:16.587Z,9.75
